Narowal Weather



Narowal's Current Weather

Temprature 23.94o broken clouds

broken clouds

Rain: 0 %

Min Temprature23.94o
Max Temprature23.94o
Humidity41
Wind Speed6.97 m/h
Sun Rise04:58:12
Sun Set18:56:40
Current Time: 24-May-2022 08:41:43
Lat/Lon: 32.1, 74.8833




Narowal's Geo Location



Narowal's Weather Forecast

Time Overall Temp Min Temp Max Temp Humidity Wind Speed Rain
24-May-2022 (Tue)
11:00:00 broken clouds 26.380 26.380 31.270 41 6.52 m/h 0 %
14:00:00 scattered clouds 30.830 30.830 34.270 29 2.47 m/h 0 %
17:00:00 broken clouds 32.050 32.050 32.050 25 0.73 m/h 0 %
20:00:00 few clouds 29.680 29.680 29.680 29 2.05 m/h 0 %
23:00:00 clear sky 28.290 28.290 28.290 29 2.11 m/h 0 %
25-May-2022 (Wed)
02:00:00 clear sky 26.610 26.610 26.610 32 2.34 m/h 0 %
05:00:00 clear sky 25.300 25.300 25.300 36 1.69 m/h 0 %
08:00:00 clear sky 31.020 31.020 31.020 24 2.85 m/h 0 %
11:00:00 clear sky 36.840 36.840 36.840 18 0.11 m/h 0 %
14:00:00 clear sky 38.390 38.390 38.390 15 2.18 m/h 0 %
17:00:00 clear sky 38.280 38.280 38.280 15 1.88 m/h 0 %
20:00:00 clear sky 34.460 34.460 34.460 19 0.55 m/h 0 %
23:00:00 clear sky 32.050 32.050 32.050 24 2.44 m/h 0 %
26-May-2022 (Thu)
02:00:00 clear sky 30.200 30.200 30.200 27 1.52 m/h 0 %
05:00:00 clear sky 28.610 28.610 28.610 29 2.36 m/h 0 %
08:00:00 clear sky 34.410 34.410 34.410 20 2.91 m/h 0 %
11:00:00 clear sky 40.120 40.120 40.120 14 1.86 m/h 0 %
14:00:00 clear sky 42.040 42.040 42.040 12 3.56 m/h 0 %
17:00:00 clear sky 41.680 41.680 41.680 12 3.63 m/h 0 %
20:00:00 clear sky 36.680 36.680 36.680 17 3.4 m/h 0 %
23:00:00 clear sky 34.700 34.700 34.700 19 2.27 m/h 0 %
27-May-2022 (Fri)
02:00:00 clear sky 32.050 32.050 32.050 23 2.3 m/h 0 %
05:00:00 clear sky 30.260 30.260 30.260 27 2.7 m/h 0 %
08:00:00 clear sky 36.420 36.420 36.420 19 2.65 m/h 0 %
11:00:00 clear sky 42.410 42.410 42.410 12 2.74 m/h 0 %
14:00:00 clear sky 45.410 45.410 45.410 8 0.68 m/h 0 %
17:00:00 clear sky 44.600 44.600 44.600 8 0.21 m/h 0 %
20:00:00 clear sky 39.230 39.230 39.230 12 1.53 m/h 0 %
23:00:00 clear sky 36.220 36.220 36.220 15 3.56 m/h 0 %
28-May-2022 (Sat)
02:00:00 clear sky 32.900 32.900 32.900 23 3.99 m/h 0 %
05:00:00 clear sky 31.460 31.460 31.460 25 4.75 m/h 0 %
08:00:00 clear sky 37.750 37.750 37.750 19 7.27 m/h 0 %
11:00:00 clear sky 43.110 43.110 43.110 17 7.03 m/h 0 %
14:00:00 clear sky 45.300 45.300 45.300 14 7.53 m/h 0 %
17:00:00 clear sky 44.730 44.730 44.730 9 6.74 m/h 0 %
20:00:00 clear sky 37.970 37.970 37.970 16 4.96 m/h 0 %
23:00:00 clear sky 33.440 33.440 33.440 29 5.94 m/h 0 %
29-May-2022 (Sun)
02:00:00 clear sky 31.520 31.520 31.520 32 3.73 m/h 0 %
05:00:00 clear sky 30.590 30.590 30.590 35 5.57 m/h 0 %
08:00:00 clear sky 34.990 34.990 34.990 31 7.66 m/h 0 %

Famous Cities (61)